Terminal Aerodrome Forecast
Issued by NWS Newport/Morehead City, NC

Home | Current Version | Previous Version | Text Only | Print | Product List | Glossary On
Versions: 1 2 3 4 5 6 7 8 9 10 11 12
000
FTUS42 KMHX 221100
TAFEWN
TAF
KEWN 221120Z 2212/2312 32007KT P6SM BKN090
     FM221400 31014G22KT P6SM BKN050
     FM222200 32007KT P6SM SKC=

USA.gov is the U.S. government's official web portal to all federal, state and local government web resources and services.